Terminal Aerodrome Forecast
Issued by NWS Green Bay, WI

Home | Current Version | Previous Version | Graphics & Text | Print | Product List | Glossary On
Versions: 1 2 3 4 5 6 7 8 9 10 11 12 13 14 15 16 17 18 19 20 21 22 23 24 25 26 27 28 29 30 31 32 33 34 35 36 37 38 39 40 41 42
000
FTUS43 KGRB 221134
TAFGRB
TAF
KGRB 221134Z 2212/2312 03006KT P6SM OVC100
     FM222000 07008KT P6SM OVC050
     FM230300 10008KT P6SM -SN OVC040
     FM230600 12009G15KT 4SM -SNPL OVC017
     FM230900 13009G16KT 2SM -FZRAPL BR OVC007=

USA.gov is the U.S. government's official web portal to all federal, state and local government web resources and services.